Time;durP1;ratioP1;P1;durP2;ratioP2;P2;SDS_P1;SDS_P2;PMS_P1;PMS_P2;Temp;Humidity;BMP_temperature;BMP_pressure;BME280_temperature;BME280_humidity;BME280_pressure;Samples;Min_cycle;Max_cycle;Signal;HPM_P1;HPM_P2
2023/09/07 00:01:42;;;;;;;7.38;4.57;;;17.00;71.00;;;;;;5052382;28;20086;-75
2023/09/07 00:04:08;;;;;;;6.30;4.30;;;17.00;70.90;;;;;;5051932;28;20044;-75
2023/09/07 00:06:34;;;;;;;5.85;4.35;;;17.00;70.70;;;;;;5052357;28;20021;-75
2023/09/07 00:09:00;;;;;;;8.35;4.30;;;17.00;70.60;;;;;;5052304;28;20013;-77
2023/09/07 00:11:25;;;;;;;4.85;3.80;;;17.00;70.80;;;;;;5052184;28;20155;-77
2023/09/07 00:13:51;;;;;;;6.78;4.18;;;16.90;70.80;;;;;;5052269;28;20028;-77
2023/09/07 00:16:17;;;;;;;7.63;4.20;;;16.90;70.90;;;;;;5052215;28;20526;-78
2023/09/07 00:18:43;;;;;;;5.65;4.20;;;16.80;71.10;;;;;;5052327;28;20414;-77
2023/09/07 00:21:08;;;;;;;6.10;3.72;;;16.80;71.20;;;;;;5052170;28;20033;-77
2023/09/07 00:23:34;;;;;;;6.80;4.07;;;16.70;71.20;;;;;;5052187;28;20082;-76
2023/09/07 00:25:59;;;;;;;6.70;4.10;;;16.70;71.10;;;;;;5052168;28;20033;-77
2023/09/07 00:28:25;;;;;;;5.78;3.70;;;16.60;71.10;;;;;;5052033;28;20049;-76
2023/09/07 00:30:51;;;;;;;4.22;3.78;;;16.50;72.50;;;;;;5036355;28;20029;-77
2023/09/07 00:33:16;;;;;;;7.32;4.20;;;16.50;71.60;;;;;;5056116;28;20032;-76
2023/09/07 00:35:42;;;;;;;6.57;4.00;;;16.50;71.80;;;;;;5055995;28;20028;-76
2023/09/07 00:38:07;;;;;;;5.80;3.80;;;16.50;71.60;;;;;;5056058;28;20497;-77
2023/09/07 00:40:34;;;;;;;6.85;4.05;;;16.40;71.70;;;;;;5055986;28;20079;-77
2023/09/07 00:43:00;;;;;;;5.13;3.90;;;16.50;71.80;;;;;;5055823;28;20017;-76
2023/09/07 00:45:26;;;;;;;4.20;3.55;;;16.40;71.80;;;;;;5055750;28;20501;-75
2023/09/07 00:47:51;;;;;;;5.68;3.80;;;16.50;71.60;;;;;;5055569;28;20033;-75
2023/09/07 00:50:17;;;;;;;5.85;3.75;;;16.50;71.90;;;;;;5055817;28;20445;-76
2023/09/07 00:52:44;;;;;;;4.88;3.08;;;16.50;72.00;;;;;;5055665;28;20025;-77
2023/09/07 00:55:10;;;;;;;4.68;3.80;;;16.40;71.90;;;;;;5055637;28;20021;-77
2023/09/07 00:57:36;;;;;;;5.07;3.45;;;16.40;72.00;;;;;;5055567;28;20040;-78
2023/09/07 01:00:06;;;;;;;4.60;3.47;;;16.40;72.00;;;;;;5055333;28;20036;-76
2023/09/07 01:02:32;;;;;;;5.38;4.10;;;16.40;71.80;;;;;;5055637;28;20027;-76
2023/09/07 01:04:57;;;;;;;4.50;4.05;;;16.40;71.60;;;;;;5055400;28;20025;-75
2023/09/07 01:07:37;;;;;;;5.55;3.88;;;16.40;71.60;;;;;;5055288;28;20024;-76
2023/09/07 01:10:03;;;;;;;4.57;3.83;;;16.40;71.50;;;;;;5055445;28;20032;-73
2023/09/07 01:12:30;;;;;;;4.50;4.00;;;16.30;71.60;;;;;;5055225;28;20017;-74
2023/09/07 01:14:56;;;;;;;5.40;4.00;;;16.30;71.80;;;;;;5055294;28;20053;-75
2023/09/07 01:17:23;;;;;;;4.43;3.47;;;16.20;72.00;;;;;;5055295;28;20110;-76
2023/09/07 01:19:52;;;;;;;7.07;3.85;;;16.10;72.40;;;;;;5054987;28;20434;-74
2023/09/07 01:22:24;;;;;;;4.10;3.70;;;16.10;72.50;;;;;;5055102;28;20715;-74
2023/09/07 01:24:52;;;;;;;4.22;3.83;;;16.10;72.60;;;;;;5037099;28;20048;-73
2023/09/07 01:27:18;;;;;;;4.15;3.75;;;16.10;72.60;;;;;;5054820;28;20037;-73
2023/09/07 01:29:44;;;;;;;5.20;3.72;;;16.10;72.60;;;;;;5055100;28;20443;-73
2023/09/07 01:32:10;;;;;;;5.13;3.95;;;16.10;72.50;;;;;;5054983;28;20053;-74
2023/09/07 01:34:36;;;;;;;5.57;3.92;;;16.00;72.50;;;;;;5054692;28;20029;-74
2023/09/07 01:37:01;;;;;;;6.03;4.15;;;15.90;73.20;;;;;;5054864;28;20025;-75
2023/09/07 01:39:27;;;;;;;4.40;4.00;;;15.80;73.50;;;;;;5054810;28;20017;-73
2023/09/07 01:41:52;;;;;;;5.05;4.40;;;15.70;73.50;;;;;;5054117;28;20494;-73
2023/09/07 01:44:18;;;;;;;6.25;4.28;;;15.70;73.80;;;;;;5036915;28;20025;-73
2023/09/07 01:46:43;;;;;;;4.70;4.20;;;15.60;74.10;;;;;;5054770;28;20062;-73
2023/09/07 01:49:09;;;;;;;7.15;4.20;;;15.60;74.10;;;;;;5036916;28;20025;-73
2023/09/07 01:51:35;;;;;;;8.05;3.90;;;15.60;74.10;;;;;;5054690;28;20525;-74
2023/09/07 01:54:00;;;;;;;5.40;4.22;;;15.60;74.30;;;;;;5054473;28;20021;-73
2023/09/07 01:56:26;;;;;;;3.88;3.53;;;15.50;74.70;;;;;;5054492;28;20108;-74
2023/09/07 01:58:52;;;;;;;6.03;3.97;;;15.50;74.70;;;;;;5054308;28;20383;-74
2023/09/07 02:01:25;;;;;;;5.28;3.53;;;15.50;74.60;;;;;;5054314;28;20024;-74
2023/09/07 02:03:52;;;;;;;3.95;3.38;;;15.60;74.50;;;;;;5054346;28;20013;-74
2023/09/07 02:06:18;;;;;;;7.43;4.00;;;15.60;74.40;;;;;;5054287;28;20483;-74
2023/09/07 02:08:43;;;;;;;4.07;3.28;;;15.60;74.20;;;;;;5054082;28;20017;-73
2023/09/07 02:11:09;;;;;;;11.98;4.78;;;15.60;74.10;;;;;;5054103;28;20027;-72
2023/09/07 02:13:35;;;;;;;3.95;3.58;;;15.60;74.10;;;;;;5054186;28;20020;-72
2023/09/07 02:16:07;;;;;;;4.13;3.72;;;15.70;74.30;;;;;;5036052;28;20025;-74
2023/09/07 02:18:33;;;;;;;5.10;4.35;;;15.70;74.20;;;;;;5054001;28;20029;-75
2023/09/07 02:21:03;;;;;;;7.28;4.75;;;15.70;74.10;;;;;;5054009;28;20032;-72
2023/09/07 02:23:29;;;;;;;7.53;5.18;;;15.80;73.80;;;;;;5054450;28;20029;-73
2023/09/07 02:25:55;;;;;;;6.53;4.97;;;15.80;73.50;;;;;;5053981;28;20033;-71
2023/09/07 02:28:20;;;;;;;4.70;4.30;;;15.80;73.10;;;;;;5053723;28;20465;-73
2023/09/07 02:30:46;;;;;;;6.95;4.60;;;15.90;73.20;;;;;;5053915;28;20044;-75
2023/09/07 02:33:11;;;;;;;9.25;5.07;;;15.90;73.10;;;;;;5053899;28;20025;-73
2023/09/07 02:35:37;;;;;;;5.55;4.00;;;15.90;73.10;;;;;;5035900;28;20033;-73
2023/09/07 02:38:03;;;;;;;4.95;3.78;;;16.00;72.80;;;;;;5053785;28;20032;-75
2023/09/07 02:40:28;;;;;;;5.03;3.65;;;16.00;72.80;;;;;;5053698;28;20482;-72
2023/09/07 02:42:54;;;;;;;4.50;3.65;;;16.00;72.50;;;;;;5053808;28;20025;-73
2023/09/07 02:45:20;;;;;;;6.82;4.40;;;16.00;72.40;;;;;;5035524;28;20029;-73
2023/09/07 02:47:46;;;;;;;8.00;4.55;;;16.10;72.30;;;;;;5053466;28;20025;-75
2023/09/07 02:50:12;;;;;;;5.47;3.72;;;16.00;72.10;;;;;;5053543;28;20021;-75
2023/09/07 02:52:39;;;;;;;5.05;3.40;;;16.00;72.00;;;;;;5053288;28;20467;-75
2023/09/07 02:55:06;;;;;;;3.70;3.40;;;15.90;72.50;;;;;;5052945;28;20025;-75
2023/09/07 02:57:31;;;;;;;4.03;3.63;;;15.80;72.80;;;;;;5053463;28;20115;-76
2023/09/07 02:59:57;;;;;;;5.07;3.67;;;15.60;73.20;;;;;;5053386;28;20108;-73
2023/09/07 03:02:22;;;;;;;4.18;3.78;;;15.60;73.70;;;;;;5053239;28;20036;-74
2023/09/07 03:04:53;;;;;;;3.90;3.38;;;15.50;74.20;;;;;;5053179;28;20033;-74
2023/09/07 03:07:19;;;;;;;4.07;3.53;;;15.40;75.30;;;;;;5053226;28;20407;-75
2023/09/07 03:09:44;;;;;;;4.72;3.53;;;15.40;74.50;;;;;;5053126;28;20017;-75
2023/09/07 03:12:10;;;;;;;4.30;3.83;;;15.50;74.50;;;;;;5035329;28;20479;-76
2023/09/07 03:14:35;;;;;;;4.40;4.00;;;15.60;74.00;;;;;;5035201;28;20029;-76
2023/09/07 03:17:01;;;;;;;4.70;3.85;;;15.60;73.80;;;;;;5052933;28;20032;-72
2023/09/07 03:19:26;;;;;;;5.60;3.50;;;15.70;73.60;;;;;;5052958;28;20096;-73
2023/09/07 03:21:53;;;;;;;4.18;3.50;;;15.60;73.30;;;;;;5052933;28;20064;-73
2023/09/07 03:24:20;;;;;;;3.88;3.33;;;15.70;73.30;;;;;;5052827;28;20031;-75
2023/09/07 03:26:46;;;;;;;5.85;3.55;;;15.70;73.20;;;;;;5052817;28;20376;-73
2023/09/07 03:29:11;;;;;;;3.38;3.08;;;15.70;73.00;;;;;;5052822;28;20013;-72
2023/09/07 03:31:37;;;;;;;3.83;3.50;;;15.70;73.10;;;;;;5052850;28;20029;-73
2023/09/07 03:34:02;;;;;;;3.42;3.13;;;15.60;73.00;;;;;;5052794;28;20131;-74
2023/09/07 03:36:28;;;;;;;3.38;3.08;;;15.60;72.90;;;;;;5052627;28;20032;-73
2023/09/07 03:38:53;;;;;;;4.82;3.28;;;15.70;73.00;;;;;;5052773;28;20025;-74
2023/09/07 03:41:19;;;;;;;4.82;3.85;;;15.70;72.80;;;;;;5052558;28;20048;-73
2023/09/07 03:43:45;;;;;;;3.80;3.50;;;15.70;72.90;;;;;;5052724;28;20057;-74
2023/09/07 03:46:10;;;;;;;4.40;4.00;;;15.60;73.00;;;;;;5034854;28;20063;-72
2023/09/07 03:48:36;;;;;;;4.45;3.40;;;15.60;73.30;;;;;;5035071;28;20463;-72
2023/09/07 03:51:05;;;;;;;4.05;3.65;;;15.60;73.50;;;;;;5034879;28;20379;-72
2023/09/07 03:53:31;;;;;;;4.20;3.42;;;15.60;73.60;;;;;;5034960;28;20093;-73
2023/09/07 03:55:57;;;;;;;4.47;3.70;;;15.60;73.40;;;;;;5035097;28;20021;-72
2023/09/07 03:58:22;;;;;;;3.65;3.25;;;15.60;73.30;;;;;;5034927;28;20063;-73
2023/09/07 04:00:48;;;;;;;3.25;2.92;;;15.50;73.20;;;;;;5034981;28;20038;-74
2023/09/07 04:03:14;;;;;;;3.25;2.95;;;15.50;73.50;;;;;;5039018;28;20017;-75
2023/09/07 04:05:40;;;;;;;4.55;3.10;;;15.40;73.60;;;;;;5036978;28;20422;-75
2023/09/07 04:08:06;;;;;;;5.60;3.90;;;15.40;73.70;;;;;;5056612;28;20017;-74
2023/09/07 04:10:31;;;;;;;3.58;3.28;;;15.40;73.80;;;;;;5039001;28;20029;-74
2023/09/07 04:12:57;;;;;;;7.20;3.65;;;15.40;73.90;;;;;;5038785;28;20562;-74
2023/09/07 04:15:22;;;;;;;4.07;3.65;;;15.40;73.90;;;;;;5038560;28;20035;-74
2023/09/07 04:17:50;;;;;;;4.18;3.70;;;15.30;74.00;;;;;;5056363;28;20115;-73
2023/09/07 04:20:15;;;;;;;4.93;3.53;;;15.30;74.20;;;;;;5038596;28;20025;-73
2023/09/07 04:22:41;;;;;;;4.25;3.60;;;15.30;74.20;;;;;;5038754;28;20025;-74
2023/09/07 04:25:07;;;;;;;4.00;3.60;;;15.30;73.70;;;;;;5038559;28;20083;-73
2023/09/07 04:27:33;;;;;;;3.92;3.45;;;15.30;74.00;;;;;;5038249;28;20124;-73
2023/09/07 04:29:58;;;;;;;3.88;3.55;;;15.30;73.90;;;;;;5038682;28;20060;-73
2023/09/07 04:32:24;;;;;;;4.13;3.28;;;15.30;73.00;;;;;;5038660;28;20082;-72
2023/09/07 04:34:56;;;;;;;3.92;3.53;;;15.30;73.00;;;;;;5056385;28;20575;-73
2023/09/07 04:37:23;;;;;;;3.30;3.00;;;15.30;72.90;;;;;;5038191;28;20059;-72
2023/09/07 04:39:53;;;;;;;3.53;3.20;;;15.30;72.80;;;;;;5038372;28;20040;-73
2023/09/07 04:42:19;;;;;;;3.50;3.20;;;15.30;72.50;;;;;;5038425;28;20025;-73
2023/09/07 04:44:45;;;;;;;5.60;3.10;;;15.20;72.40;;;;;;5038396;28;20037;-75
2023/09/07 04:47:11;;;;;;;3.90;2.92;;;15.20;72.30;;;;;;5055918;28;20025;-74
2023/09/07 04:49:36;;;;;;;3.70;3.30;;;15.20;72.20;;;;;;5038276;28;20017;-73
2023/09/07 04:52:02;;;;;;;3.95;3.10;;;15.20;72.30;;;;;;5038294;28;20043;-74
2023/09/07 04:54:28;;;;;;;4.90;3.10;;;15.10;72.60;;;;;;5037568;28;20025;-73
2023/09/07 04:56:54;;;;;;;4.65;3.33;;;15.10;72.80;;;;;;5038216;28;20040;-74
2023/09/07 04:59:19;;;;;;;5.35;3.70;;;15.00;73.30;;;;;;5038033;28;20032;-73
2023/09/07 05:01:45;;;;;;;3.97;3.58;;;15.00;73.50;;;;;;5038107;28;20021;-75
2023/09/07 05:04:11;;;;;;;4.72;3.72;;;15.00;73.60;;;;;;5038059;28;20028;-74
2023/09/07 05:06:40;;;;;;;3.63;3.33;;;14.90;73.80;;;;;;5037921;28;20387;-74
2023/09/07 05:09:05;;;;;;;3.40;3.10;;;14.90;74.10;;;;;;5037913;28;20332;-75
2023/09/07 05:11:34;;;;;;;3.85;3.50;;;14.90;74.10;;;;;;5038061;28;20028;-76
2023/09/07 05:14:00;;;;;;;3.33;3.03;;;15.00;74.30;;;;;;5037778;28;20028;-75
2023/09/07 05:16:26;;;;;;;4.10;3.60;;;15.00;74.30;;;;;;5035985;28;20083;-74
2023/09/07 05:18:51;;;;;;;5.00;3.67;;;15.10;74.20;;;;;;5053972;28;20021;-76
2023/09/07 05:21:17;;;;;;;6.40;3.70;;;15.10;74.00;;;;;;5053927;28;20032;-73
2023/09/07 05:23:43;;;;;;;4.10;3.60;;;15.10;73.80;;;;;;5037609;28;20037;-73
2023/09/07 05:26:08;;;;;;;4.78;3.42;;;15.10;73.80;;;;;;5037234;28;20132;-74
2023/09/07 05:28:34;;;;;;;3.70;3.40;;;15.20;73.80;;;;;;5037778;28;20080;-76
2023/09/07 05:30:59;;;;;;;3.72;3.00;;;15.30;73.80;;;;;;5037162;28;20089;-77
2023/09/07 05:33:25;;;;;;;4.45;3.33;;;15.30;73.50;;;;;;5055267;28;20020;-74
2023/09/07 05:35:50;;;;;;;4.40;3.30;;;15.40;73.20;;;;;;5053880;28;20079;-76
2023/09/07 05:38:16;;;;;;;4.32;3.60;;;15.50;73.00;;;;;;5055064;28;20033;-74
2023/09/07 05:40:44;;;;;;;3.53;3.22;;;15.50;72.70;;;;;;5037305;28;20028;-74
2023/09/07 05:43:10;;;;;;;3.45;3.15;;;15.50;72.50;;;;;;5037328;28;20029;-75
2023/09/07 05:45:38;;;;;;;2.80;2.60;;;15.60;72.30;;;;;;5036829;28;20060;-75
2023/09/07 05:48:04;;;;;;;3.47;3.13;;;15.60;72.00;;;;;;5054950;28;20033;-73
2023/09/07 05:50:31;;;;;;;3.88;3.47;;;15.70;72.00;;;;;;5054873;28;20021;-73
2023/09/07 05:52:56;;;;;;;19.38;4.60;;;15.70;72.00;;;;;;5037150;28;20029;-74
2023/09/07 05:55:22;;;;;;;19.27;4.43;;;15.90;71.90;;;;;;5054736;28;20426;-77
2023/09/07 05:57:49;;;;;;;7.35;3.90;;;15.90;71.80;;;;;;5054452;28;20391;-75
2023/09/07 06:00:16;;;;;;;8.95;3.80;;;16.00;71.60;;;;;;5037005;28;20029;-74
2023/09/07 06:02:43;;;;;;;8.23;3.67;;;16.10;71.40;;;;;;5053354;28;20438;-74
2023/09/07 06:05:08;;;;;;;17.08;4.95;;;16.20;71.10;;;;;;5054512;28;20043;-74
2023/09/07 06:07:35;;;;;;;10.65;4.38;;;16.30;71.00;;;;;;5054413;28;20024;-75
2023/09/07 06:10:01;;;;;;;11.18;4.55;;;16.30;71.70;;;;;;5054455;28;20032;-75
2023/09/07 06:12:27;;;;;;;11.63;4.78;;;16.40;70.90;;;;;;5054303;28;20025;-75
2023/09/07 06:14:52;;;;;;;10.10;4.90;;;16.50;71.00;;;;;;5036569;28;20025;-75
2023/09/07 06:17:18;;;;;;;6.78;4.18;;;16.60;70.90;;;;;;5036713;28;20466;-74
2023/09/07 06:19:45;;;;;;;5.72;3.90;;;16.70;70.80;;;;;;5036590;28;20082;-76
2023/09/07 06:22:10;;;;;;;7.40;5.93;;;16.70;70.50;;;;;;5054112;28;20029;-76
2023/09/07 06:24:36;;;;;;;9.48;7.90;;;16.80;70.50;;;;;;5053803;28;20549;-75
2023/09/07 06:27:01;;;;;;;9.52;7.57;;;16.80;70.40;;;;;;5053969;28;20045;-75
2023/09/07 06:29:27;;;;;;;8.27;7.38;;;16.90;70.50;;;;;;5053627;28;20478;-74
2023/09/07 06:31:52;;;;;;;8.40;7.00;;;17.00;70.30;;;;;;5053927;28;20517;-75
2023/09/07 06:34:18;;;;;;;9.85;6.72;;;17.20;70.40;;;;;;5036396;28;20051;-76
2023/09/07 06:36:44;;;;;;;37.47;9.32;;;17.30;70.30;;;;;;5054265;28;20482;-80
2023/09/07 06:39:09;;;;;;;10.77;6.85;;;17.50;76.90;;;;;;5036119;28;20521;-81
2023/09/07 06:41:35;;;;;;;11.15;5.90;;;17.90;76.20;;;;;;5036869;28;20029;-80
2023/09/07 06:44:01;;;;;;;8.90;5.72;;;18.10;74.30;;;;;;5054364;28;20398;-78
2023/09/07 06:46:26;;;;;;;9.88;6.13;;;18.30;72.10;;;;;;5036210;28;20044;-79
2023/09/07 06:48:52;;;;;;;8.02;6.10;;;18.50;70.30;;;;;;5036853;28;20074;-83
2023/09/07 06:51:25;;;;;;;6.07;5.30;;;18.70;69.00;;;;;;5054922;28;20020;-82
2023/09/07 06:54:14;;;;;;;6.45;5.40;;;18.90;68.30;;;;;;5055618;28;20059;-82
2023/09/07 06:56:41;;;;;;;6.57;4.78;;;19.10;66.50;;;;;;5036983;28;20039;-81
2023/09/07 06:59:15;;;;;;;11.57;5.35;;;19.20;65.60;;;;;;5055385;28;20036;-82
2023/09/07 07:01:42;;;;;;;6.78;4.93;;;19.40;64.40;;;;;;5019793;28;20037;-81
2023/09/07 07:04:31;;;;;;;7.72;5.28;;;19.50;64.30;;;;;;5003227;28;20035;-82
2023/09/07 07:07:47;;;;;;;8.73;4.72;;;19.70;64.00;;;;;;5035426;28;20033;-82
2023/09/07 07:10:54;;;;;;;10.07;5.35;;;19.70;63.70;;;;;;5053869;28;20021;-82
2023/09/07 07:13:59;;;;;;;5.78;4.93;;;19.80;63.70;;;;;;5052425;28;20045;-82
2023/09/07 07:16:40;;;;;;;13.18;6.70;;;19.90;63.50;;;;;;5039228;28;20045;-82
2023/09/07 07:19:55;;;;;;;8.52;5.63;;;20.00;63.40;;;;;;5052569;28;20119;-82
2023/09/07 07:22:21;;;;;;;6.75;5.20;;;20.10;63.40;;;;;;5023421;28;20029;-81
2023/09/07 07:24:52;;;;;;;10.18;5.10;;;20.20;63.40;;;;;;5036395;28;20434;-81
2023/09/07 07:27:45;;;;;;;6.72;5.30;;;20.30;63.50;;;;;;5020352;28;20052;-81
2023/09/07 07:30:11;;;;;;;10.90;5.80;;;20.30;63.50;;;;;;5035468;28;20028;-82
2023/09/07 07:32:37;;;;;;;5.72;4.57;;;20.50;63.00;;;;;;5036498;28;20031;-84
2023/09/07 07:35:04;;;;;;;8.63;5.18;;;20.60;62.70;;;;;;5036826;28;20048;-81
2023/09/07 07:37:29;;;;;;;8.05;5.35;;;20.70;63.10;;;;;;5055001;28;20025;-83
2023/09/07 07:39:55;;;;;;;7.22;4.75;;;20.70;62.80;;;;;;5037076;28;20040;-82
2023/09/07 07:42:20;;;;;;;6.85;4.78;;;20.80;62.70;;;;;;5044979;28;20040;-81
2023/09/07 07:44:46;;;;;;;5.78;4.10;;;20.90;63.00;;;;;;5045491;28;20036;-83
2023/09/07 07:47:11;;;;;;;8.00;5.03;;;21.00;62.50;;;;;;5061301;28;20479;-81
2023/09/07 07:49:37;;;;;;;6.13;4.90;;;21.00;62.80;;;;;;5037138;28;20491;-82
2023/09/07 07:52:03;;;;;;;12.88;5.70;;;20.90;63.00;;;;;;5054065;28;20091;-83
2023/09/07 07:54:29;;;;;;;9.38;5.10;;;20.90;63.10;;;;;;5053506;28;20091;-83
2023/09/07 07:56:54;;;;;;;8.52;4.80;;;20.90;63.20;;;;;;5036410;28;20493;-83
2023/09/07 07:59:20;;;;;;;8.93;5.22;;;21.00;63.20;;;;;;5053603;28;20044;-82
2023/09/07 08:01:46;;;;;;;7.47;5.18;;;21.10;62.80;;;;;;5035224;28;20029;-82
2023/09/07 08:04:11;;;;;;;5.45;4.65;;;21.30;62.30;;;;;;5052964;28;20378;-82
2023/09/07 08:06:37;;;;;;;6.75;4.82;;;21.30;62.40;;;;;;5052528;28;20029;-83
2023/09/07 08:09:03;;;;;;;7.70;4.38;;;21.20;62.90;;;;;;5052698;28;20053;-83
2023/09/07 08:11:28;;;;;;;10.30;4.82;;;21.40;62.40;;;;;;5034972;28;20025;-82
2023/09/07 08:13:54;;;;;;;9.70;4.88;;;21.50;62.70;;;;;;5035311;28;20025;-82
2023/09/07 08:16:19;;;;;;;9.52;5.13;;;21.60;62.00;;;;;;5035220;28;20467;-82
2023/09/07 08:18:45;;;;;;;5.15;4.60;;;21.50;61.60;;;;;;5035301;28;20017;-81
2023/09/07 08:21:13;;;;;;;6.72;4.90;;;21.60;61.40;;;;;;5052546;28;20021;-81
2023/09/07 08:23:39;;;;;;;7.32;4.43;;;21.60;62.10;;;;;;5052496;28;20029;-82
2023/09/07 08:26:05;;;;;;;7.03;4.88;;;21.70;61.80;;;;;;5052048;28;20059;-83
2023/09/07 08:28:31;;;;;;;4.80;4.13;;;21.80;60.80;;;;;;5051308;28;20086;-82
2023/09/07 08:30:58;;;;;;;5.07;4.25;;;21.70;61.30;;;;;;5052758;28;20059;-82
2023/09/07 08:33:28;;;;;;;5.25;4.22;;;21.90;61.50;;;;;;5051498;28;20029;-83
2023/09/07 08:35:55;;;;;;;8.68;5.00;;;21.90;61.30;;;;;;5052741;28;20135;-81
2023/09/07 08:38:24;;;;;;;5.80;4.28;;;21.80;61.50;;;;;;5052911;28;20079;-83
2023/09/07 08:40:51;;;;;;;8.60;5.00;;;21.80;61.60;;;;;;5053249;28;20017;-83
2023/09/07 08:43:18;;;;;;;6.38;4.60;;;22.00;61.50;;;;;;5035632;28;20029;-82
2023/09/07 08:45:50;;;;;;;7.68;4.50;;;22.00;62.10;;;;;;5034561;28;20414;-81
2023/09/07 08:48:18;;;;;;;5.30;4.75;;;22.00;61.20;;;;;;5035281;28;20108;-82
2023/09/07 08:50:49;;;;;;;5.50;4.90;;;22.30;61.70;;;;;;5053353;28;20028;-81
2023/09/07 08:53:19;;;;;;;6.47;4.25;;;22.40;60.60;;;;;;5056945;28;20074;-82
2023/09/07 08:55:45;;;;;;;8.43;5.20;;;22.40;59.90;;;;;;5047134;28;20124;-81
2023/09/07 08:58:12;;;;;;;5.80;5.20;;;22.60;59.20;;;;;;5035892;28;20037;-81
2023/09/07 09:00:37;;;;;;;6.15;4.57;;;22.50;59.30;;;;;;5036022;28;20111;-82
2023/09/07 09:03:04;;;;;;;5.68;4.60;;;22.40;59.70;;;;;;5035999;28;20361;-81
2023/09/07 09:05:30;;;;;;;5.35;4.22;;;22.50;60.50;;;;;;5044098;28;20029;-81
2023/09/07 09:08:04;;;;;;;7.68;4.97;;;22.60;59.80;;;;;;5048338;28;20021;-81
2023/09/07 09:10:30;;;;;;;7.03;5.40;;;22.70;59.70;;;;;;5046370;28;20044;-80
2023/09/07 09:12:56;;;;;;;5.35;4.85;;;22.70;59.60;;;;;;5044394;28;20043;-81
2023/09/07 09:15:22;;;;;;;6.63;5.25;;;22.80;59.40;;;;;;5045029;28;20032;-81
2023/09/07 09:17:48;;;;;;;7.20;5.18;;;23.00;58.90;;;;;;5043226;28;20032;-82
2023/09/07 09:20:24;;;;;;;7.30;5.18;;;23.20;58.80;;;;;;5046525;28;20025;-80
2023/09/07 09:22:54;;;;;;;6.68;4.50;;;23.30;58.40;;;;;;5045432;28;20475;-80
2023/09/07 09:25:20;;;;;;;5.53;4.38;;;23.30;58.50;;;;;;5046168;28;20474;-81
2023/09/07 09:27:47;;;;;;;9.05;5.55;;;23.40;57.70;;;;;;5051854;28;20049;-81
2023/09/07 09:30:15;;;;;;;6.10;5.47;;;23.60;57.70;;;;;;5036641;28;20475;-81
2023/09/07 09:32:42;;;;;;;10.05;6.18;;;23.90;57.00;;;;;;5055050;28;20021;-81
2023/09/07 09:35:09;;;;;;;10.43;5.90;;;24.10;56.50;;;;;;5056576;28;20017;-80
2023/09/07 09:37:55;;;;;;;7.60;6.18;;;24.30;55.60;;;;;;5055492;28;20416;-79
2023/09/07 09:40:21;;;;;;;5.65;5.15;;;24.10;56.30;;;;;;5054270;28;20042;-81
2023/09/07 09:42:47;;;;;;;7.25;5.38;;;24.20;55.40;;;;;;5055221;28;20175;-81
2023/09/07 09:45:13;;;;;;;10.07;5.03;;;24.10;56.90;;;;;;5054969;28;20024;-79
2023/09/07 09:47:41;;;;;;;7.40;4.85;;;24.30;57.50;;;;;;5055178;28;20017;-79
2023/09/07 09:50:11;;;;;;;8.93;5.45;;;24.40;56.70;;;;;;5054460;28;20021;-79
2023/09/07 09:52:37;;;;;;;6.63;4.82;;;24.70;55.60;;;;;;5054289;28;20064;-79
2023/09/07 09:55:08;;;;;;;6.82;4.97;;;24.90;55.50;;;;;;5054353;28;20108;-78
2023/09/07 09:57:36;;;;;;;5.68;5.07;;;25.10;53.50;;;;;;5054000;28;20075;-79
2023/09/07 10:00:49;;;;;;;6.30;5.43;;;25.20;54.20;;;;;;5054168;28;20455;-80
2023/09/07 10:02:57;;;;;;;7.97;4.90;;;25.30;53.60;;;;;;5048747;28;20051;-80
2023/09/07 10:05:23;;;;;;;7.53;5.45;;;25.30;53.10;;;;;;5052890;28;20024;-79
2023/09/07 10:07:50;;;;;;;9.75;6.35;;;25.50;53.40;;;;;;5054802;28;20021;-79
2023/09/07 10:10:18;;;;;;;7.75;4.97;;;25.60;52.70;;;;;;5056065;28;20833;-80
2023/09/07 10:12:45;;;;;;;6.70;6.00;;;25.50;53.40;;;;;;5054854;28;20041;-80
2023/09/07 10:15:24;;;;;;;8.63;6.55;;;25.50;52.80;;;;;;5037064;28;20021;-81
2023/09/07 10:17:50;;;;;;;8.30;5.45;;;25.50;53.10;;;;;;5054206;28;20120;-80
2023/09/07 10:20:22;;;;;;;6.65;5.97;;;25.70;53.90;;;;;;5053996;28;20096;-80
2023/09/07 10:22:48;;;;;;;6.75;5.40;;;25.70;52.30;;;;;;5054234;28;20082;-79
2023/09/07 10:25:22;;;;;;;5.93;5.32;;;25.90;52.40;;;;;;5053936;28;20037;-80
2023/09/07 10:27:47;;;;;;;8.20;6.68;;;26.00;51.50;;;;;;5053741;28;20325;-79
2023/09/07 10:30:15;;;;;;;7.80;6.47;;;26.20;51.50;;;;;;5053782;28;20036;-81
2023/09/07 10:32:41;;;;;;;10.50;6.25;;;26.20;51.60;;;;;;5053861;28;20025;-79
2023/09/07 10:35:21;;;;;;;12.70;6.53;;;26.50;51.00;;;;;;5053852;28;20029;-74
2023/09/07 10:37:47;;;;;;;6.25;5.63;;;26.60;50.40;;;;;;5053821;28;20021;-76
2023/09/07 10:40:18;;;;;;;9.93;5.93;;;26.90;50.00;;;;;;5053618;28;20107;-74
2023/09/07 10:42:43;;;;;;;5.38;4.90;;;26.90;49.70;;;;;;5049442;28;20386;-75
2023/09/07 10:45:12;;;;;;;7.07;4.80;;;26.90;49.30;;;;;;5036043;28;20029;-75
2023/09/07 10:47:41;;;;;;;5.28;4.78;;;27.10;50.00;;;;;;5047212;28;20025;-73
2023/09/07 10:50:07;;;;;;;4.50;4.10;;;27.20;51.00;;;;;;5054014;28;20047;-75
2023/09/07 10:52:33;;;;;;;6.60;4.90;;;27.40;49.40;;;;;;5035652;28;20483;-78
2023/09/07 10:54:59;;;;;;;6.75;4.57;;;27.60;47.70;;;;;;5035498;28;20041;-78
2023/09/07 10:57:24;;;;;;;8.55;5.40;;;27.70;47.40;;;;;;5053363;28;20395;-77
2023/09/07 10:59:54;;;;;;;5.75;4.60;;;27.60;47.20;;;;;;5053155;28;20053;-75
2023/09/07 11:02:20;;;;;;;10.23;4.75;;;27.80;47.90;;;;;;5035355;28;20029;-76
2023/09/07 11:04:46;;;;;;;5.65;4.43;;;27.90;47.60;;;;;;5032113;28;20033;-76
2023/09/07 11:07:12;;;;;;;7.75;5.05;;;28.10;46.90;;;;;;5037421;28;20025;-74
2023/09/07 11:09:42;;;;;;;5.63;4.65;;;28.10;46.00;;;;;;5036017;28;20487;-78
2023/09/07 11:12:08;;;;;;;8.25;5.20;;;28.30;45.90;;;;;;5034944;28;20475;-73
2023/09/07 11:14:34;;;;;;;7.35;4.78;;;28.60;45.60;;;;;;5034139;28;20028;-75
2023/09/07 11:17:03;;;;;;;5.28;4.57;;;28.70;45.00;;;;;;5035366;28;20021;-73
2023/09/07 11:19:32;;;;;;;10.02;5.28;;;28.70;45.70;;;;;;5032263;28;20036;-73
2023/09/07 11:21:57;;;;;;;9.23;4.40;;;28.90;45.30;;;;;;5035443;28;20025;-74
2023/09/07 11:24:24;;;;;;;11.50;5.15;;;29.00;45.60;;;;;;5032402;28;20471;-73
2023/09/07 11:26:49;;;;;;;4.95;4.45;;;29.00;44.40;;;;;;5014649;28;20077;-73
2023/09/07 11:29:16;;;;;;;6.15;4.78;;;29.30;44.00;;;;;;5046369;28;20029;-74
2023/09/07 11:31:43;;;;;;;6.72;4.50;;;29.60;43.20;;;;;;5038335;28;20040;-73
2023/09/07 11:34:10;;;;;;;10.23;4.70;;;29.60;42.90;;;;;;5056692;28;20025;-75
2023/09/07 11:36:36;;;;;;;4.78;3.53;;;29.50;43.40;;;;;;5035679;28;20064;-75
2023/09/07 11:39:10;;;;;;;4.90;3.90;;;29.60;43.50;;;;;;5035156;28;20056;-74
2023/09/07 11:41:36;;;;;;;4.28;3.88;;;29.80;42.50;;;;;;5035158;28;20021;-74
2023/09/07 11:44:01;;;;;;;8.13;4.57;;;29.90;42.20;;;;;;5051713;28;20551;-75
2023/09/07 11:46:27;;;;;;;5.05;3.80;;;30.10;42.00;;;;;;5034565;28;20433;-75
2023/09/07 11:48:52;;;;;;;5.28;3.90;;;30.20;42.10;;;;;;5052513;28;20056;-75
2023/09/07 11:51:18;;;;;;;7.13;3.67;;;30.40;42.30;;;;;;5034998;28;20031;-75
2023/09/07 11:53:43;;;;;;;7.47;4.45;;;30.50;41.10;;;;;;5034951;28;20026;-76
2023/09/07 11:56:09;;;;;;;7.70;3.88;;;30.80;40.80;;;;;;5034523;28;20528;-76
2023/09/07 11:58:34;;;;;;;4.75;4.22;;;31.00;40.70;;;;;;5034736;28;20032;-77
2023/09/07 12:01:00;;;;;;;11.80;4.72;;;31.10;39.80;;;;;;5034655;28;20082;-76
2023/09/07 12:03:26;;;;;;;4.72;4.20;;;30.90;40.70;;;;;;5034629;28;20024;-76
2023/09/07 12:05:51;;;;;;;6.60;4.45;;;30.50;41.10;;;;;;5034533;28;20383;-78
2023/09/07 12:08:17;;;;;;;5.20;4.22;;;30.60;40.90;;;;;;5034931;28;20025;-75
2023/09/07 12:10:42;;;;;;;4.60;4.18;;;30.30;41.80;;;;;;5052662;28;20456;-76
2023/09/07 12:13:08;;;;;;;6.97;4.28;;;30.60;41.30;;;;;;5052243;28;20054;-77
2023/09/07 12:15:35;;;;;;;4.53;4.13;;;30.90;40.30;;;;;;5052543;28;20051;-75
2023/09/07 12:18:00;;;;;;;7.18;4.35;;;31.00;40.90;;;;;;5035034;28;20364;-75
2023/09/07 12:20:26;;;;;;;7.30;3.97;;;30.90;39.90;;;;;;5035074;28;20512;-75
2023/09/07 12:22:52;;;;;;;4.53;4.13;;;31.10;40.50;;;;;;5034417;28;20020;-75
2023/09/07 12:25:17;;;;;;;6.70;4.05;;;31.50;40.00;;;;;;5034412;28;20029;-77
2023/09/07 12:27:46;;;;;;;6.55;4.25;;;31.80;39.00;;;;;;5038230;28;20045;-77
2023/09/07 12:30:13;;;;;;;5.38;4.43;;;32.10;38.10;;;;;;5038529;28;20033;-76
2023/09/07 12:32:40;;;;;;;4.65;4.00;;;31.80;38.40;;;;;;5038800;28;20446;-77
2023/09/07 12:35:08;;;;;;;7.50;4.10;;;31.70;38.80;;;;;;5056400;28;20055;-77
2023/09/07 12:37:37;;;;;;;7.75;4.80;;;31.60;39.60;;;;;;5038340;28;20383;-76
2023/09/07 12:40:12;;;;;;;6.30;4.03;;;31.70;38.60;;;;;;5038433;28;20021;-76
2023/09/07 12:42:47;;;;;;;4.53;3.60;;;31.70;38.70;;;;;;5037865;28;20029;-78
2023/09/07 12:45:14;;;;;;;6.85;4.28;;;32.00;38.50;;;;;;5038225;28;20036;-76
2023/09/07 12:47:40;;;;;;;5.88;4.05;;;31.90;38.30;;;;;;5037949;28;20182;-76